Time;durP1;ratioP1;P1;durP2;ratioP2;P2;SDS_P1;SDS_P2;PMS_P1;PMS_P2;Temp;Humidity;BMP_temperature;BMP_pressure;BME280_temperature;BME280_humidity;BME280_pressure;Samples;Min_cycle;Max_cycle;Signal;HPM_P1;HPM_P2
2022/11/22 00:01:29;;;;;;;1999.90;999.90;;;;;;;3.17;100.00;96741.31;5111740;28;20030;-74
2022/11/22 00:03:55;;;;;;;1999.90;999.90;;;;;;;3.28;100.00;96733.16;5093202;28;20037;-74
2022/11/22 00:06:20;;;;;;;1999.90;999.90;;;;;;;3.36;100.00;96740.69;5111608;28;20027;-74
2022/11/22 00:08:45;;;;;;;1999.90;999.90;;;;;;;3.13;100.00;96732.16;5111600;28;20047;-73
2022/11/22 00:11:11;;;;;;;1999.90;999.90;;;;;;;3.13;100.00;96732.16;5111957;28;20104;-74
2022/11/22 00:13:36;;;;;;;1999.90;999.90;;;;;;;3.04;100.00;96722.22;5112036;28;20038;-74
2022/11/22 00:16:03;;;;;;;1999.90;999.90;;;;;;;3.07;100.00;96722.47;5111821;28;20415;-74
2022/11/22 00:18:29;;;;;;;1999.90;999.90;;;;;;;3.15;100.00;96723.78;5111690;28;20051;-74
2022/11/22 00:20:55;;;;;;;1999.90;999.90;;;;;;;3.15;100.00;96726.50;5111561;28;20476;-74
2022/11/22 00:23:20;;;;;;;1999.90;999.90;;;;;;;3.14;100.00;96728.38;5111144;28;20077;-74
2022/11/22 00:25:46;;;;;;;1999.90;999.90;;;;;;;3.10;100.00;96719.19;5111224;28;20057;-74
2022/11/22 00:28:11;;;;;;;1999.90;999.90;;;;;;;3.22;100.00;96719.69;5111304;28;20039;-75
2022/11/22 00:30:37;;;;;;;1999.90;999.90;;;;;;;3.24;100.00;96722.94;5111467;28;20023;-74
2022/11/22 00:33:02;;;;;;;1999.90;999.90;;;;;;;3.32;100.00;96723.44;5111704;28;20031;-74
2022/11/22 00:35:28;;;;;;;1999.90;999.90;;;;;;;3.27;100.00;96721.56;5111428;28;20035;-74
2022/11/22 00:37:53;;;;;;;1999.90;999.90;;;;;;;3.36;100.00;96719.88;5111396;28;20031;-74
2022/11/22 00:40:19;;;;;;;1999.90;999.90;;;;;;;3.42;100.00;96707.94;5111622;28;20590;-74
2022/11/22 00:42:44;;;;;;;1999.90;999.90;;;;;;;3.42;100.00;96707.13;5111285;28;20035;-74
2022/11/22 00:45:10;;;;;;;1999.90;999.90;;;;;;;3.47;100.00;96693.59;5111144;28;20042;-74
2022/11/22 00:47:35;;;;;;;1999.90;999.90;;;;;;;3.44;100.00;96686.06;5095003;28;20038;-74
2022/11/22 00:50:01;;;;;;;1999.90;999.90;;;;;;;3.43;100.00;96687.94;5072785;28;20077;-74
2022/11/22 00:52:26;;;;;;;1999.90;999.90;;;;;;;3.34;100.00;96692.34;5090894;28;20024;-75
2022/11/22 00:54:52;;;;;;;1999.90;999.90;;;;;;;3.38;100.00;96688.00;5091059;28;20414;-74
2022/11/22 00:57:17;;;;;;;1999.90;999.90;;;;;;;3.42;100.00;96685.50;5090718;28;20028;-74
2022/11/22 00:59:42;;;;;;;1999.90;999.90;;;;;;;3.58;100.00;96682.44;5092015;28;20023;-75
2022/11/22 01:02:08;;;;;;;1999.90;999.90;;;;;;;3.65;100.00;96660.47;5091097;28;20024;-75
2022/11/22 01:04:33;;;;;;;1999.90;999.90;;;;;;;3.55;100.00;96660.56;5090903;28;20388;-74
2022/11/22 01:06:58;;;;;;;1999.90;999.90;;;;;;;3.52;100.00;96680.03;5090408;28;20028;-74
2022/11/22 01:09:24;;;;;;;1999.90;999.90;;;;;;;3.50;100.00;96693.84;5095363;28;20159;-75
2022/11/22 01:11:50;;;;;;;1999.90;999.90;;;;;;;3.53;100.00;96687.06;5111081;28;20442;-75
2022/11/22 01:14:16;;;;;;;1999.90;999.90;;;;;;;3.46;100.00;96691.97;5102718;28;20119;-74
2022/11/22 01:16:42;;;;;;;1999.90;999.90;;;;;;;3.39;100.00;96688.78;5090367;28;20020;-74
2022/11/22 01:19:07;;;;;;;1999.90;999.90;;;;;;;3.36;100.00;96679.34;5090469;28;20070;-74
2022/11/22 01:21:33;;;;;;;1999.90;999.90;;;;;;;3.31;100.00;96683.97;5103853;28;20035;-74
2022/11/22 01:23:58;;;;;;;1999.90;999.90;;;;;;;3.29;100.00;96686.16;5110112;28;20028;-75
2022/11/22 01:26:24;;;;;;;1999.90;999.90;;;;;;;3.33;100.00;96670.97;5110093;28;20045;-74
2022/11/22 01:28:49;;;;;;;1999.90;999.90;;;;;;;3.28;100.00;96669.16;5111082;28;20488;-74
2022/11/22 01:31:14;;;;;;;1999.90;999.90;;;;;;;3.23;100.00;96661.06;5111031;28;20056;-74
2022/11/22 01:33:40;;;;;;;1999.90;999.90;;;;;;;3.26;100.00;96659.72;5111800;28;20023;-73
2022/11/22 01:36:05;;;;;;;1999.90;999.90;;;;;;;3.15;100.00;96654.38;5117950;28;20130;-74
2022/11/22 01:38:30;;;;;;;1999.90;999.90;;;;;;;3.15;100.00;96648.97;5119377;28;20019;-75
2022/11/22 01:40:56;;;;;;;1999.90;999.90;;;;;;;3.19;100.00;96655.44;5123131;28;20059;-75
2022/11/22 01:43:24;;;;;;;1999.90;999.90;;;;;;;3.16;100.00;96652.47;5118552;28;20068;-74
2022/11/22 01:45:56;;;;;;;1999.90;999.90;;;;;;;3.17;100.00;96644.06;5099234;28;20544;-74
2022/11/22 01:48:28;;;;;;;1999.90;999.90;;;;;;;3.27;100.00;96645.09;5117645;28;20111;-75
2022/11/22 01:50:58;;;;;;;1999.90;999.90;;;;;;;3.12;100.00;96641.41;5090714;28;20381;-74
2022/11/22 01:53:35;;;;;;;1999.90;999.90;;;;;;;3.09;100.00;96644.69;5097115;28;20035;-74
2022/11/22 01:56:02;;;;;;;1999.90;999.90;;;;;;;3.14;100.00;96647.34;5097025;28;20031;-74
2022/11/22 01:58:32;;;;;;;1999.90;999.90;;;;;;;3.12;100.00;96649.53;5097138;28;20114;-74
2022/11/22 02:00:57;;;;;;;1999.90;999.90;;;;;;;3.10;100.00;96640.88;5097228;28;20024;-75
2022/11/22 02:03:25;;;;;;;1999.90;999.90;;;;;;;3.06;100.00;96634.44;5097188;28;20534;-75
2022/11/22 02:05:52;;;;;;;1999.90;999.90;;;;;;;3.10;100.00;96627.38;5097081;28;20103;-75
2022/11/22 02:08:43;;;;;;;1999.90;999.90;;;;;;;3.18;100.00;96634.09;5096913;28;20078;-75
2022/11/22 02:11:11;;;;;;;1999.90;999.90;;;;;;;3.20;100.00;96621.91;5097384;28;20059;-75
2022/11/22 02:13:41;;;;;;;1999.90;999.90;;;;;;;3.20;100.00;96623.78;5097096;28;20473;-76
2022/11/22 02:16:07;;;;;;;1999.90;999.90;;;;;;;3.32;100.00;96618.06;5096874;28;20101;-75
2022/11/22 02:18:34;;;;;;;1999.90;999.90;;;;;;;3.19;100.00;96617.59;5096836;28;20055;-76
2022/11/22 02:21:01;;;;;;;1999.90;999.90;;;;;;;3.15;100.00;96621.13;5097073;28;20477;-75
2022/11/22 02:23:52;;;;;;;1999.90;999.90;;;;;;;3.26;100.00;96606.47;5096850;28;20032;-76
2022/11/22 02:26:17;;;;;;;1999.90;999.90;;;;;;;3.22;100.00;96605.44;5096549;28;20024;-75
2022/11/22 02:28:43;;;;;;;1999.90;999.90;;;;;;;3.18;100.00;96601.66;5096833;28;20134;-76
2022/11/22 02:31:37;;;;;;;1999.90;999.90;;;;;;;3.20;100.00;96596.78;5096988;28;20143;-74
2022/11/22 02:34:03;;;;;;;1999.90;999.90;;;;;;;3.19;100.00;96589.78;5096763;28;20023;-75
2022/11/22 02:36:32;;;;;;;1999.90;999.90;;;;;;;3.22;100.00;96590.03;5096836;28;20093;-75
2022/11/22 02:38:57;;;;;;;1999.90;999.90;;;;;;;3.22;100.00;96591.91;5097915;28;20088;-75
2022/11/22 02:41:23;;;;;;;1999.90;999.90;;;;;;;3.26;100.00;96600.28;5097738;28;20468;-75
2022/11/22 02:43:48;;;;;;;1999.90;999.90;;;;;;;3.18;100.00;96597.06;5100041;28;20520;-75
2022/11/22 02:46:19;;;;;;;1999.90;999.90;;;;;;;3.20;100.00;96580.56;5114858;28;20033;-75
2022/11/22 02:48:45;;;;;;;1999.90;999.90;;;;;;;3.22;100.00;96573.81;5113758;28;20020;-75
2022/11/22 02:51:15;;;;;;;1999.90;999.90;;;;;;;3.28;100.00;96573.78;5113510;28;20020;-75
2022/11/22 02:53:46;;;;;;;1999.90;999.90;;;;;;;3.27;100.00;96569.44;5113429;28;20111;-75
2022/11/22 02:56:12;;;;;;;1999.90;999.90;;;;;;;3.25;100.00;96572.44;5113533;28;20027;-76
2022/11/22 02:58:38;;;;;;;1999.90;999.90;;;;;;;3.23;100.00;96570.00;5113746;28;20032;-75
2022/11/22 03:01:03;;;;;;;1999.90;999.90;;;;;;;3.21;100.00;96556.00;5113378;28;20059;-75
2022/11/22 03:03:31;;;;;;;1999.90;999.90;;;;;;;3.32;100.00;96548.59;5113570;28;20118;-75
2022/11/22 03:05:56;;;;;;;1999.90;999.90;;;;;;;3.36;100.00;96560.44;5113362;28;20046;-75
2022/11/22 03:08:21;;;;;;;1999.90;999.90;;;;;;;3.23;100.00;96555.69;5094782;28;20056;-75
2022/11/22 03:10:47;;;;;;;1999.90;999.90;;;;;;;3.42;100.00;96556.59;5113892;28;20038;-76
2022/11/22 03:13:12;;;;;;;1999.90;999.90;;;;;;;3.28;100.00;96550.25;5113429;28;20369;-76
2022/11/22 03:15:38;;;;;;;1999.90;999.90;;;;;;;3.30;100.00;96547.25;5113798;28;20442;-75
2022/11/22 03:18:04;;;;;;;1999.90;999.90;;;;;;;3.39;100.00;96534.75;5112933;28;20077;-75
2022/11/22 03:20:31;;;;;;;1999.90;999.90;;;;;;;3.40;100.00;96536.38;5113647;28;20027;-75
2022/11/22 03:22:59;;;;;;;1999.90;999.90;;;;;;;3.48;100.00;96538.44;5113232;28;20031;-76
2022/11/22 03:25:24;;;;;;;1999.90;999.90;;;;;;;3.51;100.00;96546.00;5113158;28;20392;-75
2022/11/22 03:27:50;;;;;;;1999.90;999.90;;;;;;;3.46;100.00;96529.81;5112953;28;20038;-74
2022/11/22 03:30:15;;;;;;;1999.90;999.90;;;;;;;3.44;100.00;96534.72;5113115;28;20035;-75
2022/11/22 03:32:40;;;;;;;1999.90;999.90;;;;;;;3.43;100.00;96535.81;5113046;28;20030;-75
2022/11/22 03:35:06;;;;;;;1999.90;999.90;;;;;;;3.43;100.00;96538.50;5094704;28;20042;-75
2022/11/22 03:37:32;;;;;;;1999.90;999.90;;;;;;;3.45;100.00;96533.59;5113104;28;20046;-75
2022/11/22 03:39:57;;;;;;;1999.90;999.90;;;;;;;3.57;100.00;96528.66;5113262;28;20023;-75
2022/11/22 03:42:22;;;;;;;1999.90;999.90;;;;;;;3.52;100.00;96520.56;5094523;28;20530;-75
2022/11/22 03:44:48;;;;;;;1999.90;999.90;;;;;;;3.51;100.00;96524.38;5112473;28;20773;-76
2022/11/22 03:47:13;;;;;;;1999.90;999.90;;;;;;;3.52;100.00;96518.69;5113768;28;20495;-75
2022/11/22 03:49:39;;;;;;;1999.90;999.90;;;;;;;3.52;100.00;96523.28;5116886;28;20069;-76
2022/11/22 03:52:04;;;;;;;1999.90;999.90;;;;;;;3.51;100.00;96517.06;5114107;28;20027;-75
2022/11/22 03:54:29;;;;;;;1999.90;999.90;;;;;;;3.46;100.00;96513.63;5112579;28;20441;-75
2022/11/22 03:56:55;;;;;;;1999.90;999.90;;;;;;;3.42;100.00;96490.94;5093938;28;20024;-74
2022/11/22 03:59:20;;;;;;;1999.90;999.90;;;;;;;3.44;100.00;96494.19;5112084;28;20038;-73
2022/11/22 04:01:45;;;;;;;1999.90;999.90;;;;;;;3.47;100.00;96482.81;5112537;28;20020;-76
2022/11/22 04:04:11;;;;;;;1999.90;999.90;;;;;;;3.52;100.00;96490.84;5112186;28;20030;-75
2022/11/22 04:06:37;;;;;;;1999.90;999.90;;;;;;;3.52;100.00;96485.44;5111869;28;20443;-76
2022/11/22 04:09:03;;;;;;;1999.90;999.90;;;;;;;3.44;100.00;96467.97;5112209;28;20043;-75
2022/11/22 04:11:28;;;;;;;1999.90;999.90;;;;;;;3.45;100.00;96463.34;5112501;28;20073;-75
2022/11/22 04:16:38;;;;;;;1999.90;999.90;;;;;;;3.50;100.00;96455.19;5112606;28;20031;-74
2022/11/22 04:19:03;;;;;;;1999.90;999.90;;;;;;;3.62;100.00;96458.31;5113328;28;20032;-75
2022/11/22 04:21:34;;;;;;;1999.90;999.90;;;;;;;3.63;100.00;96465.34;5102353;28;20028;-75
2022/11/22 04:26:47;;;;;;;1999.90;999.90;;;;;;;3.66;100.00;96443.13;5091703;28;20039;-75
2022/11/22 04:29:13;;;;;;;1999.90;999.90;;;;;;;3.72;100.00;96436.56;5091507;28;20055;-75
2022/11/22 04:34:22;;;;;;;1999.90;999.90;;;;;;;3.66;100.00;96443.13;5091687;28;20511;-75
2022/11/22 04:36:48;;;;;;;1999.90;999.90;;;;;;;3.66;100.00;96432.31;5091328;28;20059;-75
2022/11/22 04:39:13;;;;;;;1999.90;999.90;;;;;;;3.68;100.00;96432.81;5073050;28;20070;-75
2022/11/22 04:41:38;;;;;;;1999.90;999.90;;;;;;;3.74;100.00;96428.97;5091675;28;20467;-75
2022/11/22 04:46:47;;;;;;;1999.90;999.90;;;;;;;3.76;100.00;96421.34;5091221;28;20070;-76
2022/11/22 04:49:13;;;;;;;1999.90;999.90;;;;;;;3.74;100.00;96434.38;5090881;28;20571;-75
2022/11/22 04:54:22;;;;;;;1999.90;999.90;;;;;;;3.78;100.00;96435.41;5091062;28;20023;-76
2022/11/22 04:56:47;;;;;;;1999.90;999.90;;;;;;;3.62;100.00;96434.78;5091358;28;20024;-75
2022/11/22 04:59:13;;;;;;;1999.90;999.90;;;;;;;3.59;100.00;96429.16;5090846;28;20100;-76
2022/11/22 05:01:38;;;;;;;1999.90;999.90;;;;;;;3.64;100.00;96408.25;5101741;28;20042;-75
2022/11/22 05:04:03;;;;;;;1999.90;999.90;;;;;;;3.71;100.00;96402.50;5110884;28;20032;-75
2022/11/22 05:06:29;;;;;;;1999.90;999.90;;;;;;;3.75;100.00;96404.34;5111212;28;20047;-75
2022/11/22 05:08:54;;;;;;;1999.90;999.90;;;;;;;3.68;100.00;96398.50;5110125;28;20079;-75
2022/11/22 05:11:19;;;;;;;1999.90;999.90;;;;;;;3.78;100.00;96411.06;5111543;28;20085;-76
2022/11/22 05:13:45;;;;;;;1999.90;999.90;;;;;;;3.70;100.00;96412.50;5111339;28;20027;-76
2022/11/22 05:16:12;;;;;;;1999.90;999.90;;;;;;;3.75;100.00;96408.94;5110748;28;20020;-75
2022/11/22 05:18:38;;;;;;;1999.90;999.90;;;;;;;3.69;100.00;96393.88;5111102;28;20035;-74
2022/11/22 05:21:11;;;;;;;1999.90;999.90;;;;;;;3.71;100.00;96397.09;5111029;28;20029;-75
2022/11/22 05:23:54;;;;;;;1999.90;999.90;;;;;;;3.78;100.00;96403.78;5110823;28;20084;-75
2022/11/22 05:26:46;;;;;;;1999.90;999.90;;;;;;;3.76;100.00;96397.03;5110897;28;20054;-75
2022/11/22 05:29:11;;;;;;;1999.90;999.90;;;;;;;3.75;100.00;96393.53;5106103;28;20050;-75
2022/11/22 05:31:38;;;;;;;1999.90;999.90;;;;;;;3.74;100.00;96399.22;5090541;28;20023;-75
2022/11/22 05:34:05;;;;;;;1999.90;999.90;;;;;;;3.71;100.00;96386.28;5090714;28;20036;-75
2022/11/22 05:36:32;;;;;;;1999.90;999.90;;;;;;;3.73;100.00;96386.78;5072419;28;20066;-75
2022/11/22 05:38:57;;;;;;;1999.90;999.90;;;;;;;3.68;100.00;96382.25;5090638;28;20101;-75
2022/11/22 05:41:23;;;;;;;1999.90;999.90;;;;;;;3.67;100.00;96385.25;5072737;28;20036;-75
2022/11/22 05:43:48;;;;;;;1999.90;999.90;;;;;;;3.62;100.00;96388.84;5096852;28;20080;-76
2022/11/22 05:46:19;;;;;;;1999.90;999.90;;;;;;;3.61;100.00;96398.03;5110876;28;20110;-75
2022/11/22 05:48:46;;;;;;;1999.90;999.90;;;;;;;3.61;100.00;96386.41;5099079;28;20109;-75
2022/11/22 05:51:13;;;;;;;1999.90;999.90;;;;;;;3.57;100.00;96380.00;5097218;28;20035;-75
2022/11/22 05:53:40;;;;;;;1999.90;999.90;;;;;;;3.42;100.00;96380.16;5090689;28;20068;-74
2022/11/22 05:56:07;;;;;;;1999.90;999.90;;;;;;;3.42;100.00;96374.75;5093426;28;20046;-75
2022/11/22 05:58:33;;;;;;;1999.90;999.90;;;;;;;3.39;100.00;96386.13;5104302;28;20567;-75
2022/11/22 06:01:16;;;;;;;1999.90;999.90;;;;;;;3.33;100.00;96385.41;5104082;28;20031;-75
2022/11/22 06:03:42;;;;;;;1999.90;999.90;;;;;;;3.44;100.00;96396.91;5107416;28;20114;-73
2022/11/22 06:06:08;;;;;;;1999.90;999.90;;;;;;;3.51;100.00;96403.56;5097112;28;20469;-74
2022/11/22 06:08:36;;;;;;;1999.90;999.90;;;;;;;3.62;100.00;96398.84;5100363;28;20050;-75
2022/11/22 06:11:12;;;;;;;1999.90;999.90;;;;;;;3.79;100.00;96389.13;5103749;28;20048;-74
2022/11/22 06:13:43;;;;;;;1999.90;999.90;;;;;;;3.82;100.00;96382.38;5095230;28;20472;-74
2022/11/22 06:16:09;;;;;;;1999.90;999.90;;;;;;;3.77;100.00;96377.81;5097366;28;20040;-74
2022/11/22 06:18:38;;;;;;;1999.90;999.90;;;;;;;3.81;100.00;96358.31;5097479;28;20065;-76
2022/11/22 06:21:12;;;;;;;1999.90;999.90;;;;;;;3.74;100.00;96364.88;5095295;28;20377;-75
2022/11/22 06:23:37;;;;;;;1999.90;999.90;;;;;;;3.75;100.00;96366.50;5112412;28;20091;-85
2022/11/22 06:26:05;;;;;;;1999.90;999.90;;;;;;;3.77;100.00;96366.19;5084448;28;20088;-78
2022/11/22 06:28:39;;;;;;;1999.90;999.90;;;;;;;3.79;100.00;96366.69;5107633;28;20097;-80
2022/11/22 06:31:06;;;;;;;1999.90;999.90;;;;;;;3.84;100.00;96379.34;5102876;28;20082;-76
2022/11/22 06:33:32;;;;;;;1999.90;999.90;;;;;;;3.91;100.00;96374.41;5100943;28;20032;-75
2022/11/22 06:36:07;;;;;;;1999.90;999.90;;;;;;;3.85;100.00;96370.16;5101449;28;20024;-76
2022/11/22 06:38:33;;;;;;;1999.90;999.90;;;;;;;3.74;100.00;96366.78;5093568;28;20085;-76
2022/11/22 06:41:04;;;;;;;1999.90;999.90;;;;;;;3.72;100.00;96369.78;5094142;28;20036;-75
2022/11/22 06:43:32;;;;;;;1999.90;999.90;;;;;;;3.73;100.00;96362.44;5075344;28;20119;-75
2022/11/22 06:45:58;;;;;;;1999.90;999.90;;;;;;;3.76;100.00;96353.75;5092841;28;20028;-76
2022/11/22 06:48:25;;;;;;;1999.90;999.90;;;;;;;3.82;100.00;96362.63;5093091;28;20039;-76
2022/11/22 06:50:50;;;;;;;1999.90;999.90;;;;;;;3.86;100.00;96356.34;5093322;28;20028;-75
2022/11/22 06:53:16;;;;;;;1999.90;999.90;;;;;;;3.86;100.00;96350.13;5092618;28;20051;-76
2022/11/22 06:55:41;;;;;;;1999.90;999.90;;;;;;;3.88;100.00;96347.94;5093315;28;20385;-76
2022/11/22 06:58:06;;;;;;;1999.90;999.90;;;;;;;3.95;100.00;96345.66;5092778;28;20396;-75
2022/11/22 07:00:32;;;;;;;1999.90;999.90;;;;;;;3.94;100.00;96347.56;5098462;28;20567;-76
2022/11/22 07:02:57;;;;;;;1999.90;999.90;;;;;;;3.93;100.00;96345.97;5113303;28;20059;-75
2022/11/22 07:05:24;;;;;;;1999.90;999.90;;;;;;;4.00;100.00;96354.53;5116248;28;20051;-75
2022/11/22 07:07:49;;;;;;;1999.90;999.90;;;;;;;4.00;100.00;96359.94;5097147;28;20108;-76
2022/11/22 07:10:15;;;;;;;1999.90;999.90;;;;;;;3.99;100.00;96354.78;5113318;28;20024;-76
2022/11/22 07:12:40;;;;;;;1999.90;999.90;;;;;;;3.92;100.00;96355.16;5116118;28;20077;-84
2022/11/22 07:15:06;;;;;;;1999.90;999.90;;;;;;;3.91;100.00;96355.47;5101371;28;20058;-80
2022/11/22 07:17:32;;;;;;;1999.90;999.90;;;;;;;3.92;100.00;96352.47;5116381;28;20080;-84
2022/11/22 07:19:58;;;;;;;1999.90;999.90;;;;;;;3.67;100.00;96347.41;5117482;28;20028;-80
2022/11/22 07:22:23;;;;;;;1999.90;999.90;;;;;;;3.81;100.00;96353.72;5116056;28;20038;-80
2022/11/22 07:24:48;;;;;;;1999.90;999.90;;;;;;;3.65;100.00;96349.59;5115518;28;20080;-76
2022/11/22 07:27:14;;;;;;;1999.90;999.90;;;;;;;3.72;100.00;96341.94;5102604;28;20035;-75
2022/11/22 07:29:40;;;;;;;1999.90;999.90;;;;;;;3.82;100.00;96344.50;5092650;28;20101;-76
2022/11/22 07:32:05;;;;;;;1999.90;999.90;;;;;;;3.87;100.00;96347.13;5096696;28;20168;-77
2022/11/22 07:34:30;;;;;;;1999.90;999.90;;;;;;;3.83;100.00;96345.28;5102886;28;20399;-75
2022/11/22 07:36:56;;;;;;;1999.90;999.90;;;;;;;3.84;100.00;96342.31;5103914;28;20030;-75
2022/11/22 07:39:21;;;;;;;1999.90;999.90;;;;;;;3.84;100.00;96336.91;5101030;28;20046;-75
2022/11/22 07:41:46;;;;;;;1999.90;999.90;;;;;;;3.94;100.00;96336.75;5101648;28;20020;-76
2022/11/22 07:44:12;;;;;;;1999.90;999.90;;;;;;;3.98;100.00;96332.34;5101684;28;20464;-76
2022/11/22 07:46:37;;;;;;;1999.90;999.90;;;;;;;4.01;100.00;96326.34;5099855;28;20030;-76
2022/11/22 07:49:02;;;;;;;1999.90;999.90;;;;;;;3.87;100.00;96324.69;5101506;28;20034;-76
2022/11/22 07:51:28;;;;;;;1999.90;999.90;;;;;;;3.94;100.00;96328.66;5101064;28;20044;-75
2022/11/22 07:53:55;;;;;;;1999.90;999.90;;;;;;;3.97;100.00;96319.94;5104740;28;20077;-75
2022/11/22 07:56:20;;;;;;;1999.90;999.90;;;;;;;4.09;100.00;96314.06;5109040;28;20062;-76
2022/11/22 07:58:46;;;;;;;1999.90;999.90;;;;;;;4.12;100.00;96313.50;5106981;28;20433;-75
2022/11/22 08:01:15;;;;;;;1999.90;999.90;;;;;;;4.02;100.00;96317.16;5099856;28;20020;-75
2022/11/22 08:03:42;;;;;;;1999.90;999.90;;;;;;;4.01;100.00;96306.66;5100949;28;20047;-76
2022/11/22 08:06:09;;;;;;;1999.90;999.90;;;;;;;3.98;100.00;96316.13;5103926;28;20537;-75
2022/11/22 08:08:35;;;;;;;1999.90;999.90;;;;;;;3.96;100.00;96302.09;5105461;28;20102;-75
2022/11/22 08:11:01;;;;;;;1999.90;999.90;;;;;;;3.97;100.00;96305.63;5100499;28;20469;-75
2022/11/22 08:13:26;;;;;;;1999.90;999.90;;;;;;;4.02;100.00;96309.03;5098110;28;20028;-75
2022/11/22 08:15:52;;;;;;;1999.90;999.90;;;;;;;4.01;100.00;96299.31;5099582;28;20392;-76
2022/11/22 08:18:17;;;;;;;1999.90;999.90;;;;;;;3.87;100.00;96297.66;5105499;28;20036;-76
2022/11/22 08:20:42;;;;;;;1999.90;999.90;;;;;;;4.03;100.00;96299.84;5082971;28;20031;-76
2022/11/22 08:23:08;;;;;;;1999.90;999.90;;;;;;;4.19;100.00;96300.41;5091327;28;20456;-75
2022/11/22 08:25:33;;;;;;;1999.90;999.90;;;;;;;4.14;100.00;96303.97;5081599;28;20027;-75
2022/11/22 08:27:59;;;;;;;1999.90;999.90;;;;;;;4.11;100.00;96292.94;5090751;28;20077;-76
2022/11/22 08:30:24;;;;;;;1999.90;999.90;;;;;;;4.02;100.00;96289.28;5090738;28;20030;-75
2022/11/22 08:32:52;;;;;;;1999.90;999.90;;;;;;;4.05;100.00;96288.72;5090767;28;20065;-76
2022/11/22 08:35:18;;;;;;;1999.90;999.90;;;;;;;4.05;100.00;96289.50;5090087;28;20073;-75
2022/11/22 08:37:43;;;;;;;1999.90;999.90;;;;;;;4.04;100.00;96287.91;5090543;28;20036;-75
2022/11/22 08:40:09;;;;;;;1999.90;999.90;;;;;;;4.09;100.00;96281.63;5090416;28;20032;-77
2022/11/22 08:42:34;;;;;;;1999.90;999.90;;;;;;;4.09;100.00;96278.91;5073035;28;20081;-76
2022/11/22 08:44:59;;;;;;;1999.90;999.90;;;;;;;4.05;100.00;96261.66;5090822;28;20028;-76
2022/11/22 08:47:25;;;;;;;1999.90;999.90;;;;;;;4.07;100.00;96262.19;5091237;28;20023;-76
2022/11/22 08:49:50;;;;;;;1999.90;999.90;;;;;;;4.22;100.00;96264.63;5090807;28;20028;-76
2022/11/22 08:52:15;;;;;;;1999.90;999.90;;;;;;;4.25;100.00;96261.34;5090913;28;20030;-76
2022/11/22 08:54:41;;;;;;;1999.90;999.90;;;;;;;4.18;100.00;96237.34;5090899;28;20032;-76
2022/11/22 08:57:06;;;;;;;1999.90;999.90;;;;;;;4.38;100.00;96246.22;5090762;28;20055;-75
2022/11/22 08:59:32;;;;;;;1999.90;999.90;;;;;;;4.37;100.00;96237.31;5090682;28;20024;-76
2022/11/22 09:01:57;;;;;;;1999.90;999.90;;;;;;;4.41;100.00;96240.22;5091160;28;20028;-75
2022/11/22 09:04:22;;;;;;;1999.90;999.90;;;;;;;4.38;100.00;96243.53;5090853;28;20035;-76
2022/11/22 09:06:48;;;;;;;1999.90;999.90;;;;;;;4.23;100.00;96231.03;5072156;28;20035;-75
2022/11/22 09:09:13;;;;;;;1999.90;999.90;;;;;;;4.19;100.00;96222.75;5090463;28;20040;-76
2022/11/22 09:11:38;;;;;;;1999.90;999.90;;;;;;;4.31;100.00;96236.59;5091281;28;20098;-75
2022/11/22 09:14:04;;;;;;;1999.90;999.90;;;;;;;4.38;100.00;96219.16;5090794;28;20488;-76
2022/11/22 09:16:29;;;;;;;1999.90;999.90;;;;;;;4.55;100.00;96211.25;5093980;28;20036;-77
2022/11/22 09:18:54;;;;;;;1999.90;999.90;;;;;;;4.48;100.00;96211.63;5092179;28;20431;-75
2022/11/22 09:21:20;;;;;;;1999.90;999.90;;;;;;;4.58;100.00;96213.34;5090587;28;20035;-75
2022/11/22 09:23:48;;;;;;;1999.90;999.90;;;;;;;4.61;100.00;96210.03;5090211;28;20024;-75
2022/11/22 09:26:16;;;;;;;1999.90;999.90;;;;;;;4.58;100.00;96210.66;5090398;28;20460;-75
2022/11/22 09:28:42;;;;;;;1999.90;999.90;;;;;;;4.52;100.00;96204.53;5090276;28;20135;-75
2022/11/22 09:31:11;;;;;;;1999.90;999.90;;;;;;;4.55;100.00;96205.84;5090397;28;20477;-75
2022/11/22 09:33:38;;;;;;;1999.90;999.90;;;;;;;4.67;100.00;96193.41;5090368;28;20028;-77
2022/11/22 09:36:13;;;;;;;1999.90;999.90;;;;;;;4.73;100.00;96175.94;5090419;28;20478;-75
2022/11/22 09:38:39;;;;;;;1999.90;999.90;;;;;;;4.75;100.00;96165.63;5090557;28;20063;-76
2022/11/22 09:41:16;;;;;;;1999.90;999.90;;;;;;;4.73;100.00;96153.50;5090982;28;20297;-77
2022/11/22 09:44:03;;;;;;;1999.90;999.90;;;;;;;4.62;100.00;96147.50;5090470;28;20024;-76
2022/11/22 09:46:53;;;;;;;1999.90;999.90;;;;;;;4.53;100.00;96145.78;5090597;28;20036;-75
2022/11/22 09:49:26;;;;;;;1999.90;999.90;;;;;;;4.54;100.00;96139.28;5072159;28;20054;-75
2022/11/22 09:52:22;;;;;;;1999.90;999.90;;;;;;;4.58;100.00;96127.53;5090524;28;20020;-75
2022/11/22 09:54:57;;;;;;;1999.90;999.90;;;;;;;4.63;100.00;96113.09;5048207;28;20047;-78
2022/11/22 09:57:28;;;;;;;1999.90;999.90;;;;;;;4.50;100.00;96111.19;5094426;28;20111;-76
2022/11/22 10:00:03;;;;;;;1999.90;999.90;;;;;;;4.67;100.00;96103.25;5094444;28;20039;-76
2022/11/22 10:02:34;;;;;;;1999.90;999.90;;;;;;;4.79;100.00;96098.13;5094343;28;20051;-76
2022/11/22 10:05:03;;;;;;;1999.90;999.90;;;;;;;4.73;100.00;96102.06;5094027;28;20461;-75
2022/11/22 10:07:41;;;;;;;1999.90;999.90;;;;;;;4.82;100.00;96094.81;5093799;28;20397;-75
2022/11/22 10:10:15;;;;;;;1999.90;999.90;;;;;;;4.85;100.00;96091.50;5094950;28;20055;-75
2022/11/22 10:12:57;;;;;;;1999.90;999.90;;;;;;;4.85;100.00;96081.44;5095402;28;20487;-76
2022/11/22 10:15:56;;;;;;;1999.90;999.90;;;;;;;4.88;100.00;96085.47;5098505;28;20052;-77
2022/11/22 10:18:21;;;;;;;1999.90;999.90;;;;;;;4.86;100.00;96082.25;5098093;28;20066;-75
2022/11/22 10:20:47;;;;;;;1999.90;999.90;;;;;;;4.83;100.00;96072.03;5094056;28;20063;-75
2022/11/22 10:23:23;;;;;;;1999.90;999.90;;;;;;;4.78;100.00;96058.59;5094108;28;20024;-76
2022/11/22 10:26:26;;;;;;;1999.90;999.90;;;;;;;4.76;100.00;96050.78;5094652;28;20035;-75
2022/11/22 10:29:09;;;;;;;1999.90;999.90;;;;;;;4.75;100.00;96056.50;5089056;28;20050;-75
2022/11/22 10:31:40;;;;;;;1999.90;999.90;;;;;;;4.83;100.00;96066.59;5095591;28;20073;-75
2022/11/22 10:34:30;;;;;;;1999.90;999.90;;;;;;;4.82;100.00;96070.44;5094966;28;20040;-76
2022/11/22 10:37:14;;;;;;;1999.90;999.90;;;;;;;4.70;100.00;96080.97;5093879;28;20085;-76
2022/11/22 10:40:06;;;;;;;1999.90;999.90;;;;;;;4.74;100.00;96087.41;5093530;28;20162;-76
2022/11/22 10:42:53;;;;;;;1999.90;999.90;;;;;;;4.63;100.00;96096.84;5093585;28;20039;-75
2022/11/22 10:45:25;;;;;;;1999.90;999.90;;;;;;;4.68;100.00;96107.56;5101749;28;20107;-75
2022/11/22 10:48:08;;;;;;;1999.90;999.90;;;;;;;4.48;100.00;96095.25;5102046;28;20412;-75
2022/11/22 10:50:52;;;;;;;1999.90;999.90;;;;;;;4.36;100.00;96092.25;5104930;28;20024;-75
2022/11/22 10:53:27;;;;;;;1999.90;999.90;;;;;;;4.30;100.00;96088.84;5101899;28;20031;-75
2022/11/22 10:56:04;;;;;;;1999.90;999.90;;;;;;;4.26;100.00;96092.47;5102454;28;20102;-80
2022/11/22 10:58:53;;;;;;;1999.90;999.90;;;;;;;4.24;100.00;96084.66;5100776;28;20028;-76
2022/11/22 11:01:21;;;;;;;1999.90;999.90;;;;;;;4.29;100.00;96084.53;5103067;28;20124;-73
2022/11/22 11:03:52;;;;;;;1999.90;999.90;;;;;;;4.29;100.00;96089.94;5101387;28;20020;-75
2022/11/22 11:06:33;;;;;;;1999.90;999.90;;;;;;;4.39;100.00;96080.03;5101201;28;20038;-75
2022/11/22 11:09:20;;;;;;;1999.90;999.90;;;;;;;4.57;100.00;96079.94;5105950;28;20054;-76
2022/11/22 11:11:46;;;;;;;1999.90;999.90;;;;;;;4.69;100.00;96084.81;5105831;28;20130;-75
2022/11/22 11:14:25;;;;;;;1999.90;999.90;;;;;;;4.74;100.00;96079.28;5101581;28;20607;-76